createdAt,value
2023-03-16T00:00:13.891Z,-0.90
2023-03-16T00:02:43.101Z,-1.00
2023-03-16T00:05:14.775Z,-1.10
2023-03-16T00:07:43.965Z,-1.20
2023-03-16T00:10:14.106Z,-1.10
2023-03-16T00:12:45.009Z,-1.10
2023-03-16T00:15:13.495Z,-1.00
2023-03-16T00:17:42.006Z,-0.90
2023-03-16T00:20:13.672Z,-0.80
2023-03-16T00:22:42.663Z,-0.60
2023-03-16T00:25:12.308Z,-0.60
2023-03-16T00:27:40.491Z,-0.50
2023-03-16T00:30:11.626Z,-0.50
2023-03-16T00:32:40.508Z,-0.40
2023-03-16T00:35:09.846Z,-0.40
2023-03-16T00:37:39.975Z,-0.40
2023-03-16T00:40:11.476Z,-0.50
2023-03-16T00:42:39.706Z,-0.40
2023-03-16T00:45:09.915Z,-0.60
2023-03-16T00:47:38.033Z,-0.60
2023-03-16T00:50:08.159Z,-0.50
2023-03-16T00:52:36.523Z,-0.50
2023-03-16T00:55:08.508Z,-0.50
2023-03-16T00:57:36.662Z,-0.70
2023-03-16T01:00:12.864Z,-0.70
2023-03-16T01:02:41.221Z,-0.70
2023-03-16T01:05:10.896Z,-0.80
2023-03-16T01:07:39.233Z,-0.80
2023-03-16T01:10:11.117Z,-0.80
2023-03-16T01:12:39.431Z,-0.80
2023-03-16T01:15:09.444Z,-0.70
2023-03-16T01:17:37.751Z,-0.50
2023-03-16T01:20:11.990Z,-0.50
2023-03-16T01:22:40.229Z,-0.40
2023-03-16T01:25:13.956Z,-0.50
2023-03-16T01:27:42.245Z,-0.60
2023-03-16T01:30:12.983Z,-0.70
2023-03-16T01:32:42.019Z,-0.60
2023-03-16T01:35:10.772Z,-0.50
2023-03-16T01:37:38.979Z,-0.30
2023-03-16T01:40:12.481Z,-0.30
2023-03-16T01:42:47.424Z,-0.10
2023-03-16T01:46:18.243Z,-0.10
2023-03-16T01:49:01.949Z,-0.10
2023-03-16T01:51:37.679Z,-0.20
2023-03-16T01:54:15.024Z,-0.20
2023-03-16T01:56:52.657Z,0.10
2023-03-16T01:59:26.207Z,0.20
2023-03-16T02:01:56.253Z,0.50
2023-03-16T02:04:45.632Z,0.40
2023-03-16T02:07:17.131Z,0.20
2023-03-16T02:09:49.533Z,0.20
2023-03-16T02:12:20.678Z,0.10
2023-03-16T02:14:51.839Z,0.10
2023-03-16T02:17:23.835Z,0.20
2023-03-16T02:20:11.141Z,0.30
2023-03-16T02:22:46.410Z,0.40
2023-03-16T02:25:18.189Z,0.50
2023-03-16T02:28:04.330Z,0.60
2023-03-16T02:30:34.128Z,0.60
2023-03-16T02:33:05.060Z,0.70
2023-03-16T02:35:33.606Z,0.70
2023-03-16T02:38:02.242Z,0.80
2023-03-16T02:40:33.413Z,0.80
2023-03-16T02:43:06.445Z,1.00
2023-03-16T02:45:43.613Z,1.10
2023-03-16T02:48:15.628Z,1.20
2023-03-16T02:50:49.763Z,1.20
2023-03-16T02:53:18.411Z,1.20
2023-03-16T02:55:46.893Z,1.20
2023-03-16T02:58:16.701Z,1.10
2023-03-16T03:00:46.633Z,1.10
2023-03-16T03:03:14.993Z,1.00
2023-03-16T03:05:43.449Z,1.00
2023-03-16T03:08:11.810Z,1.00
2023-03-16T03:10:40.146Z,1.10
2023-03-16T03:13:08.490Z,1.10
2023-03-16T03:15:36.886Z,1.20
2023-03-16T03:18:06.620Z,1.20
2023-03-16T03:20:34.904Z,1.20
2023-03-16T03:23:04.056Z,1.20
2023-03-16T03:25:34.776Z,1.20
2023-03-16T03:28:05.563Z,1.30
2023-03-16T03:30:33.840Z,1.30
2023-03-16T03:33:02.734Z,1.40
2023-03-16T03:35:32.764Z,1.50
2023-03-16T03:38:00.962Z,1.60
2023-03-16T03:40:29.561Z,1.70
2023-03-16T03:42:57.965Z,2.00
2023-03-16T03:45:26.255Z,2.40
2023-03-16T03:47:55.106Z,2.60
2023-03-16T03:50:23.531Z,2.70
2023-03-16T03:52:53.156Z,2.80
2023-03-16T03:55:21.368Z,2.90
2023-03-16T03:57:49.599Z,2.80
2023-03-16T04:00:20.928Z,2.60
2023-03-16T04:02:51.126Z,2.50
2023-03-16T04:05:19.701Z,2.50
2023-03-16T04:07:48.244Z,2.30
2023-03-16T04:10:18.077Z,2.20
2023-03-16T04:12:46.333Z,2.10
2023-03-16T04:15:14.714Z,2.10
2023-03-16T04:17:42.999Z,2.20
2023-03-16T04:20:15.507Z,2.20
2023-03-16T04:22:43.823Z,2.30
2023-03-16T04:25:12.315Z,2.30
2023-03-16T04:27:41.819Z,2.30
2023-03-16T04:30:14.078Z,2.40
2023-03-16T04:32:42.736Z,2.50
2023-03-16T04:35:11.724Z,2.50
2023-03-16T04:37:39.857Z,2.60
2023-03-16T04:40:16.588Z,2.70
2023-03-16T04:42:47.894Z,2.80
2023-03-16T04:45:18.622Z,2.80
2023-03-16T04:47:46.870Z,3.00
2023-03-16T04:50:15.314Z,3.20
2023-03-16T04:52:43.453Z,3.30
2023-03-16T04:55:12.065Z,3.30
2023-03-16T04:57:40.166Z,3.50
2023-03-16T05:00:22.030Z,3.60
2023-03-16T05:02:51.794Z,3.60
2023-03-16T05:05:21.442Z,3.50
2023-03-16T05:07:50.429Z,3.50
2023-03-16T05:10:19.968Z,3.50
2023-03-16T05:12:48.140Z,3.50
2023-03-16T05:15:17.870Z,3.50
2023-03-16T05:17:46.692Z,3.50
2023-03-16T05:20:16.648Z,3.50
2023-03-16T05:22:48.188Z,3.50
2023-03-16T05:25:17.958Z,3.60
2023-03-16T05:27:49.370Z,3.60
2023-03-16T05:30:20.048Z,3.60
2023-03-16T05:32:48.448Z,3.70
2023-03-16T05:35:16.629Z,3.60
2023-03-16T05:37:45.203Z,3.70
2023-03-16T05:40:18.087Z,3.70
2023-03-16T05:42:48.577Z,3.60
2023-03-16T05:45:19.265Z,3.60
2023-03-16T05:47:47.601Z,3.60
2023-03-16T05:50:21.933Z,3.60
2023-03-16T05:52:50.362Z,3.60
2023-03-16T05:55:19.943Z,3.60
2023-03-16T05:57:48.264Z,3.60
2023-03-16T06:00:19.646Z,3.70
2023-03-16T06:02:51.327Z,3.60
2023-03-16T06:05:21.766Z,3.60
2023-03-16T06:07:50.853Z,3.60
2023-03-16T06:10:20.003Z,3.60
2023-03-16T06:12:48.605Z,3.70
2023-03-16T06:15:18.340Z,3.70
2023-03-16T06:17:46.818Z,3.70
2023-03-16T06:20:17.772Z,3.80
2023-03-16T06:22:46.960Z,4.00
2023-03-16T06:25:16.916Z,4.20
2023-03-16T06:27:46.168Z,4.40
2023-03-16T06:30:34.151Z,4.60
2023-03-16T06:33:17.541Z,4.70
2023-03-16T06:35:46.502Z,4.80
2023-03-16T06:38:14.780Z,5.00
2023-03-16T06:40:43.038Z,5.30
2023-03-16T06:43:11.303Z,5.80
2023-03-16T06:45:39.483Z,5.80
2023-03-16T06:48:09.925Z,5.70
2023-03-16T06:50:38.415Z,5.60
2023-03-16T06:53:07.586Z,5.60
2023-03-16T06:55:36.276Z,5.60
2023-03-16T06:58:04.546Z,5.80
2023-03-16T07:00:41.090Z,5.80
2023-03-16T07:06:24.388Z,5.50
2023-03-16T07:08:52.714Z,5.40
2023-03-16T07:11:21.054Z,5.40
2023-03-16T07:13:49.252Z,5.50
2023-03-16T07:16:17.562Z,5.60
2023-03-16T07:18:47.086Z,5.70
2023-03-16T07:21:15.448Z,5.80
2023-03-16T07:23:43.541Z,5.90
2023-03-16T07:26:12.101Z,6.00
2023-03-16T07:28:40.646Z,6.10
2023-03-16T07:31:10.259Z,6.10
2023-03-16T07:33:38.429Z,6.20
2023-03-16T07:36:11.049Z,6.30
2023-03-16T07:38:40.040Z,6.40
2023-03-16T07:41:08.891Z,6.50
2023-03-16T07:43:37.004Z,6.70
2023-03-16T07:46:05.521Z,6.80
2023-03-16T07:48:34.093Z,6.80
2023-03-16T07:51:02.251Z,7.00
2023-03-16T07:53:32.002Z,7.30
2023-03-16T07:56:00.058Z,7.70
2023-03-16T07:58:28.667Z,7.90
2023-03-16T08:00:59.828Z,7.90
2023-03-16T08:03:28.411Z,8.00
2023-03-16T08:05:56.868Z,7.90
2023-03-16T08:08:25.025Z,7.90
2023-03-16T08:10:56.617Z,7.80
2023-03-16T08:13:27.152Z,8.00
2023-03-16T08:15:58.744Z,7.90
2023-03-16T08:18:27.750Z,8.20
2023-03-16T08:20:55.827Z,8.80
2023-03-16T08:23:25.083Z,9.30
2023-03-16T08:25:56.978Z,9.20
2023-03-16T08:28:26.463Z,9.10
2023-03-16T08:30:55.523Z,8.80
2023-03-16T08:33:23.992Z,9.50
2023-03-16T08:35:52.134Z,10.50
2023-03-16T08:38:20.348Z,11.40
2023-03-16T08:40:48.889Z,12.60
2023-03-16T08:43:19.664Z,13.40
2023-03-16T08:45:49.401Z,13.80
2023-03-16T08:48:18.347Z,13.70
2023-03-16T08:50:46.876Z,13.50
2023-03-16T08:53:15.931Z,13.70
2023-03-16T08:55:44.079Z,14.00
2023-03-16T08:58:13.965Z,14.20
2023-03-16T09:00:46.133Z,14.40
2023-03-16T09:03:15.466Z,14.70
2023-03-16T09:05:43.456Z,15.60
2023-03-16T09:08:12.682Z,16.40
2023-03-16T09:10:40.739Z,16.50
2023-03-16T09:13:08.920Z,14.90
2023-03-16T09:15:37.596Z,14.00
2023-03-16T09:18:07.207Z,14.00
2023-03-16T09:20:35.939Z,13.70
2023-03-16T09:23:04.749Z,13.30
2023-03-16T09:25:33.600Z,13.00
2023-03-16T09:28:01.672Z,13.00
2023-03-16T09:30:30.027Z,13.30
2023-03-16T09:32:58.314Z,13.60
2023-03-16T09:35:28.258Z,15.10
2023-03-16T09:38:06.365Z,15.90
2023-03-16T09:40:38.268Z,15.00
2023-03-16T09:43:40.220Z,13.80
2023-03-16T09:46:16.438Z,13.70
2023-03-16T09:48:45.068Z,14.30
2023-03-16T09:51:24.411Z,16.30
2023-03-16T09:54:00.072Z,17.80
2023-03-16T09:56:36.409Z,18.40
2023-03-16T09:59:13.335Z,17.80
2023-03-16T10:01:58.954Z,17.20
2023-03-16T10:04:50.501Z,17.20
2023-03-16T10:07:35.868Z,18.10
2023-03-16T10:10:23.811Z,17.80
2023-03-16T10:12:59.220Z,18.70
2023-03-16T10:15:33.629Z,19.10
2023-03-16T10:18:13.344Z,19.50
2023-03-16T10:20:45.425Z,19.40
2023-03-16T10:23:22.874Z,19.40
2023-03-16T10:25:53.552Z,19.20
2023-03-16T10:28:24.502Z,18.50
2023-03-16T10:30:56.017Z,18.60
2023-03-16T10:33:27.485Z,17.80
2023-03-16T10:36:03.816Z,18.80
2023-03-16T10:38:43.048Z,19.30
2023-03-16T10:41:25.511Z,19.00
2023-03-16T10:43:57.234Z,18.50
2023-03-16T10:46:28.781Z,18.40
2023-03-16T10:49:01.164Z,18.60
2023-03-16T10:51:33.650Z,18.40
2023-03-16T10:54:14.217Z,18.40
2023-03-16T10:56:42.561Z,19.00
2023-03-16T10:59:29.443Z,18.80
2023-03-16T11:01:59.676Z,19.90
2023-03-16T11:04:33.353Z,19.70
2023-03-16T11:07:01.546Z,20.20
2023-03-16T11:09:36.085Z,20.70
2023-03-16T11:12:16.243Z,20.20
2023-03-16T11:14:46.692Z,19.10
2023-03-16T11:17:22.469Z,18.20
2023-03-16T11:19:55.445Z,17.90
2023-03-16T11:22:26.200Z,17.20
2023-03-16T11:25:10.672Z,16.80
2023-03-16T11:27:50.288Z,16.80
2023-03-16T11:30:28.935Z,17.10
2023-03-16T11:33:00.602Z,17.40
2023-03-16T11:35:58.053Z,16.90
2023-03-16T11:38:33.652Z,17.30
2023-03-16T11:41:07.589Z,17.90
2023-03-16T11:43:53.520Z,18.60
2023-03-16T11:46:26.305Z,18.90
2023-03-16T11:49:32.756Z,19.60
2023-03-16T11:52:18.583Z,19.40
2023-03-16T11:55:00.769Z,19.20
2023-03-16T11:57:52.103Z,18.90
2023-03-16T12:00:43.650Z,18.50
2023-03-16T12:03:50.230Z,19.10
2023-03-16T12:06:38.590Z,19.80
2023-03-16T12:09:48.190Z,19.70
2023-03-16T12:12:35.605Z,18.70
2023-03-16T12:15:33.753Z,18.30
2023-03-16T12:18:12.563Z,17.20
2023-03-16T12:20:51.458Z,17.90
2023-03-16T12:23:28.941Z,17.40
2023-03-16T12:26:00.883Z,18.10
2023-03-16T12:28:32.160Z,18.60
2023-03-16T12:31:12.203Z,18.40
2023-03-16T12:34:10.303Z,18.90
2023-03-16T12:37:18.765Z,19.70
2023-03-16T12:40:09.088Z,19.90
2023-03-16T12:42:57.508Z,19.10
2023-03-16T12:45:41.164Z,18.30
2023-03-16T12:48:25.081Z,17.70
2023-03-16T12:50:56.814Z,17.50
2023-03-16T12:53:42.206Z,16.40
2023-03-16T12:56:13.361Z,16.50
2023-03-16T12:58:49.331Z,16.50
2023-03-16T13:01:21.275Z,16.30
2023-03-16T13:03:59.793Z,16.20
2023-03-16T13:06:36.602Z,16.30
2023-03-16T13:09:07.219Z,15.70
2023-03-16T13:11:47.472Z,15.60
2023-03-16T13:14:34.368Z,15.60
2023-03-16T13:17:23.438Z,15.70
2023-03-16T13:20:30.785Z,15.30
2023-03-16T13:23:22.189Z,15.40
2023-03-16T13:26:15.712Z,15.70
2023-03-16T13:28:51.121Z,15.90
2023-03-16T13:31:28.625Z,16.50
2023-03-16T13:34:00.163Z,17.20
2023-03-16T13:36:33.471Z,17.40
2023-03-16T13:39:14.721Z,18.00
2023-03-16T13:41:43.662Z,18.30
2023-03-16T13:44:17.097Z,18.00
2023-03-16T13:46:50.780Z,17.40
2023-03-16T13:49:19.103Z,17.10
2023-03-16T13:51:49.816Z,17.00
2023-03-16T13:54:26.273Z,17.00
2023-03-16T13:56:58.305Z,16.90
2023-03-16T13:59:27.515Z,17.00
2023-03-16T14:02:01.811Z,17.40
2023-03-16T14:04:33.939Z,17.10
2023-03-16T14:07:04.983Z,16.70
2023-03-16T14:09:36.431Z,16.70
2023-03-16T14:12:05.164Z,17.10
2023-03-16T14:14:41.557Z,17.30
2023-03-16T14:17:15.310Z,17.90
2023-03-16T14:19:48.348Z,17.90
2023-03-16T14:22:21.610Z,17.70
2023-03-16T14:24:59.097Z,17.40
2023-03-16T14:27:33.927Z,17.40
2023-03-16T14:30:15.748Z,17.80
2023-03-16T14:32:56.527Z,18.20
2023-03-16T14:35:30.423Z,18.10
2023-03-16T14:38:21.608Z,17.20
2023-03-16T14:40:56.397Z,17.00
2023-03-16T14:43:31.456Z,17.30
2023-03-16T14:46:00.962Z,17.20
2023-03-16T14:48:30.302Z,17.60
2023-03-16T14:51:02.125Z,17.30
2023-03-16T14:53:31.777Z,16.90
2023-03-16T14:56:00.915Z,16.80
2023-03-16T14:58:29.005Z,17.00
2023-03-16T15:00:57.967Z,17.00
2023-03-16T15:03:34.788Z,16.80
2023-03-16T15:06:03.395Z,16.60
2023-03-16T15:08:43.442Z,16.20
2023-03-16T15:11:11.852Z,15.70
2023-03-16T15:14:04.157Z,15.30
2023-03-16T15:16:32.864Z,15.00
2023-03-16T15:19:00.961Z,14.80
2023-03-16T15:21:33.365Z,14.70
2023-03-16T15:24:03.389Z,14.50
2023-03-16T15:26:32.763Z,14.40
2023-03-16T15:29:01.155Z,14.30
2023-03-16T15:31:29.348Z,14.40
2023-03-16T15:33:58.870Z,14.50
2023-03-16T15:36:27.442Z,14.40
2023-03-16T15:38:56.920Z,14.50
2023-03-16T15:41:32.390Z,14.50
2023-03-16T15:44:13.384Z,14.70
2023-03-16T15:46:41.663Z,14.70
2023-03-16T15:49:09.837Z,14.80
2023-03-16T15:51:38.033Z,14.80
2023-03-16T15:54:09.577Z,14.70
2023-03-16T15:56:53.869Z,14.70
2023-03-16T15:59:23.947Z,14.70
2023-03-16T16:01:53.009Z,14.90
2023-03-16T16:04:24.486Z,14.90
2023-03-16T16:06:55.432Z,14.50
2023-03-16T16:09:24.661Z,14.20
2023-03-16T16:11:56.146Z,13.90
2023-03-16T16:14:28.527Z,13.70
2023-03-16T16:16:57.421Z,13.50
2023-03-16T16:19:25.873Z,13.40
2023-03-16T16:21:54.269Z,13.20
2023-03-16T16:24:22.561Z,13.10
2023-03-16T16:26:54.742Z,13.00
2023-03-16T16:29:33.949Z,13.00
2023-03-16T16:32:02.370Z,12.90
2023-03-16T16:34:31.129Z,12.80
2023-03-16T16:37:01.841Z,12.70
2023-03-16T16:39:31.185Z,12.60
2023-03-16T16:41:59.314Z,12.50
2023-03-16T16:44:34.533Z,12.30
2023-03-16T16:47:04.124Z,12.10
2023-03-16T16:49:35.375Z,11.90
2023-03-16T16:52:03.800Z,11.80
2023-03-16T16:54:32.984Z,11.70
2023-03-16T16:57:02.268Z,11.50
2023-03-16T17:03:04.118Z,11.20
2023-03-16T17:05:34.234Z,11.10
2023-03-16T17:08:04.350Z,11.00
2023-03-16T17:10:34.083Z,11.00
2023-03-16T17:13:02.345Z,10.90
2023-03-16T17:15:33.816Z,10.80
2023-03-16T17:18:12.686Z,10.70
2023-03-16T17:20:41.627Z,10.50
2023-03-16T17:23:28.142Z,10.40
2023-03-16T17:25:58.731Z,10.30
2023-03-16T17:28:30.296Z,10.20
2023-03-16T17:31:00.034Z,10.10
2023-03-16T17:33:29.632Z,9.90
2023-03-16T17:35:57.972Z,9.80
2023-03-16T17:38:27.417Z,9.80
2023-03-16T17:40:59.330Z,9.70
2023-03-16T17:43:34.567Z,9.60
2023-03-16T17:46:05.989Z,9.50
2023-03-16T17:48:35.281Z,9.40
2023-03-16T17:51:05.662Z,9.40
2023-03-16T17:53:34.030Z,9.40
2023-03-16T17:56:02.314Z,9.30
2023-03-16T17:58:32.512Z,9.20
2023-03-16T18:01:02.680Z,9.00
2023-03-16T18:03:32.946Z,8.90
2023-03-16T18:06:01.274Z,8.80
2023-03-16T18:08:34.120Z,8.80
2023-03-16T18:11:06.132Z,8.70
2023-03-16T18:13:39.407Z,8.40
2023-03-16T18:16:10.353Z,8.10
2023-03-16T18:18:43.121Z,7.80
2023-03-16T18:21:20.637Z,7.50
2023-03-16T18:23:49.335Z,7.40
2023-03-16T18:26:19.431Z,7.20
2023-03-16T18:28:48.454Z,7.10
2023-03-16T18:31:23.799Z,7.30
2023-03-16T18:33:57.872Z,7.50
2023-03-16T18:36:32.187Z,7.70
2023-03-16T18:39:03.790Z,7.90
2023-03-16T18:41:35.307Z,8.00
2023-03-16T18:44:18.410Z,7.70
2023-03-16T18:46:48.889Z,7.80
2023-03-16T18:49:23.811Z,7.90
2023-03-16T18:51:55.131Z,7.90
2023-03-16T18:54:26.090Z,7.90
2023-03-16T18:56:54.964Z,8.00
2023-03-16T18:59:23.409Z,7.90
2023-03-16T19:01:52.089Z,7.90
2023-03-16T19:04:29.330Z,8.10
2023-03-16T19:06:58.977Z,8.10
2023-03-16T19:09:30.497Z,8.00
2023-03-16T19:11:59.767Z,7.80
2023-03-16T19:14:31.852Z,7.90
2023-03-16T19:17:00.323Z,7.90
2023-03-16T19:19:29.822Z,7.80
2023-03-16T19:22:09.732Z,7.80
2023-03-16T19:24:46.143Z,7.80
2023-03-16T19:27:22.203Z,7.80
2023-03-16T19:29:52.324Z,7.90
2023-03-16T19:32:22.569Z,8.00
2023-03-16T19:34:52.025Z,8.00
2023-03-16T19:37:22.261Z,7.80
2023-03-16T19:39:50.656Z,7.60
2023-03-16T19:42:26.197Z,7.50
2023-03-16T19:44:54.354Z,7.50
2023-03-16T19:47:29.424Z,7.40
2023-03-16T19:49:59.816Z,7.30
2023-03-16T19:52:31.285Z,7.40
2023-03-16T19:54:59.587Z,7.30
2023-03-16T19:57:29.752Z,7.00
2023-03-16T19:59:59.328Z,6.70
2023-03-16T20:02:29.656Z,6.50
2023-03-16T20:04:59.109Z,6.30
2023-03-16T20:07:27.348Z,6.30
2023-03-16T20:09:55.611Z,6.50
2023-03-16T20:12:28.931Z,6.80
2023-03-16T20:14:59.563Z,7.30
2023-03-16T20:17:30.641Z,7.40
2023-03-16T20:20:00.114Z,7.30
2023-03-16T20:22:29.740Z,7.40
2023-03-16T20:24:58.106Z,7.30
2023-03-16T20:27:28.751Z,7.40
2023-03-16T20:29:56.944Z,7.30
2023-03-16T20:32:35.029Z,7.20
2023-03-16T20:35:04.925Z,7.30
2023-03-16T20:37:33.765Z,7.50
2023-03-16T20:40:01.949Z,7.40
2023-03-16T20:42:34.708Z,7.40
2023-03-16T20:45:03.317Z,7.60
2023-03-16T20:47:31.493Z,7.70
2023-03-16T20:50:00.149Z,7.70
2023-03-16T20:52:31.152Z,7.60
2023-03-16T20:54:59.615Z,7.80
2023-03-16T20:57:30.148Z,7.90
2023-03-16T20:59:59.921Z,8.00
2023-03-16T21:02:31.901Z,7.90
2023-03-16T21:05:03.887Z,7.70
2023-03-16T21:07:33.968Z,7.50
2023-03-16T21:10:02.180Z,7.30
2023-03-16T21:12:34.643Z,7.60
2023-03-16T21:15:09.638Z,7.60
2023-03-16T21:17:40.110Z,7.50
2023-03-16T21:20:17.060Z,7.40
2023-03-16T21:22:47.128Z,7.50
2023-03-16T21:25:25.700Z,7.40
2023-03-16T21:27:56.404Z,7.60
2023-03-16T21:30:33.247Z,7.70
2023-03-16T21:33:02.809Z,7.60
2023-03-16T21:35:35.964Z,7.80
2023-03-16T21:38:14.484Z,8.00
2023-03-16T21:40:42.800Z,8.30
2023-03-16T21:43:12.083Z,8.30
2023-03-16T21:45:41.080Z,8.40
2023-03-16T21:48:18.311Z,8.30
2023-03-16T21:50:47.974Z,8.30
2023-03-16T21:53:28.227Z,8.30
2023-03-16T21:55:57.783Z,8.40
2023-03-16T21:58:27.134Z,8.50
2023-03-16T22:00:58.130Z,8.40
2023-03-16T22:03:37.858Z,8.40
2023-03-16T22:06:15.999Z,8.40
2023-03-16T22:08:45.506Z,8.30
2023-03-16T22:11:19.365Z,8.20
2023-03-16T22:13:50.467Z,7.90
2023-03-16T22:16:21.107Z,7.90
2023-03-16T22:18:52.349Z,8.00
2023-03-16T22:21:29.964Z,8.10
2023-03-16T22:24:01.025Z,8.00
2023-03-16T22:26:30.465Z,8.10
2023-03-16T22:29:00.516Z,8.10
2023-03-16T22:31:34.420Z,7.90
2023-03-16T22:34:04.327Z,7.90
2023-03-16T22:36:34.551Z,7.80
2023-03-16T22:39:08.766Z,8.10
2023-03-16T22:41:36.935Z,8.10
2023-03-16T22:44:05.660Z,8.00
2023-03-16T22:46:33.818Z,8.10
2023-03-16T22:49:01.861Z,8.10
2023-03-16T22:51:35.735Z,8.00
2023-03-16T22:54:12.082Z,7.70
2023-03-16T22:56:42.761Z,7.60
2023-03-16T22:59:16.911Z,7.50
2023-03-16T23:01:48.551Z,7.00
2023-03-16T23:04:20.886Z,6.70
2023-03-16T23:06:50.952Z,6.50
2023-03-16T23:09:21.848Z,6.50
2023-03-16T23:11:54.026Z,6.50
2023-03-16T23:14:25.870Z,6.60
2023-03-16T23:16:54.066Z,6.60
2023-03-16T23:19:26.992Z,6.80
2023-03-16T23:21:58.095Z,6.90
2023-03-16T23:24:28.052Z,6.80
2023-03-16T23:26:56.808Z,6.80
2023-03-16T23:29:26.129Z,6.60
2023-03-16T23:31:54.786Z,6.50
2023-03-16T23:34:26.255Z,6.40
2023-03-16T23:36:54.476Z,6.30
2023-03-16T23:39:23.195Z,6.30
2023-03-16T23:41:53.826Z,6.30
2023-03-16T23:44:27.225Z,6.50
2023-03-16T23:46:56.052Z,6.50
2023-03-16T23:49:30.021Z,6.90
2023-03-16T23:52:02.052Z,7.50
2023-03-16T23:54:33.279Z,8.00
2023-03-16T23:57:02.897Z,8.00
2023-03-16T23:59:31.209Z,8.20
